createdAt,value
2022-09-26T00:00:49.393Z,18.28
2022-09-26T00:03:16.244Z,18.06
2022-09-26T00:05:43.036Z,18.18
2022-09-26T00:08:09.930Z,18.24
2022-09-26T00:10:36.739Z,18.12
2022-09-26T00:13:03.700Z,17.91
2022-09-26T00:15:31.448Z,18.19
2022-09-26T00:17:58.336Z,17.72
2022-09-26T00:20:25.021Z,17.11
2022-09-26T00:22:51.806Z,17.25
2022-09-26T00:25:19.486Z,17.76
2022-09-26T00:27:46.170Z,17.81
2022-09-26T00:30:13.056Z,17.95
2022-09-26T00:32:40.050Z,17.99
2022-09-26T00:35:07.767Z,18.16
2022-09-26T00:37:35.304Z,16.77
2022-09-26T00:40:02.215Z,17.23
2022-09-26T00:42:28.909Z,17.52
2022-09-26T00:44:56.804Z,17.58
2022-09-26T00:47:39.063Z,17.51
2022-09-26T00:50:34.910Z,17.49
2022-09-26T00:53:14.414Z,17.04
2022-09-26T00:55:48.120Z,17.24
2022-09-26T00:58:27.272Z,17.52
2022-09-26T01:00:55.696Z,17.53
2022-09-26T01:03:24.091Z,17.58
2022-09-26T01:05:51.339Z,17.92
2022-09-26T01:08:25.507Z,17.79
2022-09-26T01:10:53.561Z,17.91
2022-09-26T01:13:21.991Z,17.84
2022-09-26T01:15:49.052Z,17.77
2022-09-26T01:18:15.799Z,17.76
2022-09-26T01:21:08.807Z,17.84
2022-09-26T01:23:58.205Z,17.68
2022-09-26T01:26:25.149Z,17.86
2022-09-26T01:29:17.193Z,17.73
2022-09-26T01:32:56.656Z,17.60
2022-09-26T01:36:03.241Z,17.66
2022-09-26T01:38:44.648Z,17.79
2022-09-26T01:41:21.695Z,18.00
2022-09-26T01:44:07.285Z,17.91
2022-09-26T01:46:51.115Z,17.92
2022-09-26T01:49:32.698Z,17.96
2022-09-26T01:52:19.591Z,18.06
2022-09-26T01:54:54.976Z,17.96
2022-09-26T01:57:30.063Z,17.91
2022-09-26T02:00:02.078Z,17.83
2022-09-26T02:02:36.066Z,17.71
2022-09-26T02:05:14.687Z,17.80
2022-09-26T02:07:45.648Z,17.80
2022-09-26T02:10:18.616Z,17.38
2022-09-26T02:12:50.940Z,17.69
2022-09-26T02:15:20.879Z,17.77
2022-09-26T02:17:53.630Z,17.83
2022-09-26T02:20:30.210Z,17.68
2022-09-26T02:23:03.928Z,17.75
2022-09-26T02:25:31.191Z,17.67
2022-09-26T02:27:58.289Z,17.53
2022-09-26T02:30:26.673Z,17.54
2022-09-26T02:32:53.654Z,17.64
2022-09-26T02:35:42.714Z,17.27
2022-09-26T02:38:11.419Z,17.61
2022-09-26T02:40:53.741Z,17.85
2022-09-26T02:43:33.125Z,17.91
2022-09-26T02:46:08.249Z,17.90
2022-09-26T02:48:54.052Z,17.85
2022-09-26T02:51:24.752Z,17.91
2022-09-26T02:54:13.515Z,17.64
2022-09-26T02:57:13.968Z,17.61
2022-09-26T03:00:01.178Z,17.86
2022-09-26T03:02:38.603Z,17.96
2022-09-26T03:05:22.182Z,18.01
2022-09-26T03:07:59.717Z,17.66
2022-09-26T03:10:31.327Z,17.73
2022-09-26T03:13:05.460Z,17.97
2022-09-26T03:15:35.314Z,17.91
2022-09-26T03:18:07.775Z,17.67
2022-09-26T03:20:36.138Z,17.64
2022-09-26T03:23:04.632Z,17.65
2022-09-26T03:25:32.446Z,17.58
2022-09-26T03:28:05.723Z,17.58
2022-09-26T03:30:33.605Z,17.40
2022-09-26T03:33:21.557Z,17.43
2022-09-26T03:35:49.085Z,17.40
2022-09-26T03:38:16.100Z,17.55
2022-09-26T03:40:49.935Z,17.53
2022-09-26T03:43:36.528Z,17.64
2022-09-26T03:46:07.598Z,17.54
2022-09-26T03:48:36.070Z,17.38
2022-09-26T03:51:05.168Z,17.48
2022-09-26T03:53:37.158Z,17.43
2022-09-26T03:56:12.346Z,17.50
2022-09-26T03:58:39.685Z,17.43
2022-09-26T04:01:15.061Z,17.46
2022-09-26T04:03:50.072Z,17.01
2022-09-26T04:06:20.255Z,17.30
2022-09-26T04:08:50.629Z,17.33
2022-09-26T04:11:20.303Z,17.54
2022-09-26T04:13:52.458Z,17.42
2022-09-26T04:16:23.891Z,17.25
2022-09-26T04:18:57.491Z,17.18
2022-09-26T04:21:27.291Z,16.62
2022-09-26T04:23:54.654Z,16.98
2022-09-26T04:26:24.385Z,17.04
2022-09-26T04:28:54.997Z,17.02
2022-09-26T04:31:26.272Z,17.37
2022-09-26T04:34:00.334Z,16.85
2022-09-26T04:36:27.714Z,17.36
2022-09-26T04:38:54.515Z,17.56
2022-09-26T04:41:22.189Z,17.58
2022-09-26T04:43:49.841Z,17.66
2022-09-26T04:46:28.210Z,17.61
2022-09-26T04:48:59.876Z,17.45
2022-09-26T04:51:28.515Z,17.68
2022-09-26T04:53:55.916Z,17.15
2022-09-26T04:56:26.876Z,17.24
2022-09-26T04:58:56.614Z,17.28
2022-09-26T05:01:26.472Z,17.69
2022-09-26T05:04:22.781Z,17.88
2022-09-26T05:06:52.161Z,17.62
2022-09-26T05:09:27.192Z,17.80
2022-09-26T05:12:00.074Z,17.84
2022-09-26T05:14:27.229Z,17.73
2022-09-26T05:16:54.993Z,17.07
2022-09-26T05:19:22.805Z,17.44
2022-09-26T05:22:08.540Z,17.69
2022-09-26T05:24:53.824Z,17.56
2022-09-26T05:27:21.275Z,17.32
2022-09-26T05:29:48.222Z,17.72
2022-09-26T05:32:17.678Z,17.93
2022-09-26T05:34:44.941Z,17.72
2022-09-26T05:37:14.937Z,17.93
2022-09-26T05:40:00.512Z,18.01
2022-09-26T05:42:29.047Z,18.11
2022-09-26T05:44:55.812Z,18.17
2022-09-26T05:47:23.543Z,18.08
2022-09-26T05:49:50.307Z,18.03
2022-09-26T05:52:19.732Z,18.04
2022-09-26T05:54:46.592Z,18.02
2022-09-26T05:57:31.784Z,18.12
2022-09-26T05:59:58.940Z,18.31
2022-09-26T06:02:25.673Z,18.31
2022-09-26T06:05:09.444Z,18.45
2022-09-26T06:07:39.005Z,18.14
2022-09-26T06:10:10.237Z,18.10
2022-09-26T06:13:02.324Z,18.38
2022-09-26T06:15:31.848Z,18.61
2022-09-26T06:18:04.833Z,18.28
2022-09-26T06:20:33.852Z,18.31
2022-09-26T06:23:01.791Z,18.23
2022-09-26T06:25:29.461Z,18.39
2022-09-26T06:28:00.572Z,18.47
2022-09-26T06:30:29.416Z,18.74
2022-09-26T06:33:03.988Z,18.69
2022-09-26T06:35:38.463Z,18.58
2022-09-26T06:38:10.115Z,18.54
2022-09-26T06:40:37.424Z,18.58
2022-09-26T06:43:05.194Z,18.74
2022-09-26T06:45:50.996Z,18.41
2022-09-26T06:48:36.357Z,18.93
2022-09-26T06:51:20.114Z,19.10
2022-09-26T06:53:47.410Z,18.31
2022-09-26T06:56:19.302Z,18.42
2022-09-26T06:58:48.803Z,18.04
2022-09-26T07:01:16.108Z,18.54
2022-09-26T07:03:45.589Z,18.52
2022-09-26T07:06:31.423Z,19.62
2022-09-26T07:09:02.649Z,19.50
2022-09-26T07:12:13.036Z,19.39
2022-09-26T07:14:34.771Z,19.35
2022-09-26T07:17:15.610Z,20.25
2022-09-26T07:20:03.327Z,20.03
2022-09-26T07:23:11.366Z,20.37
2022-09-26T07:25:40.844Z,20.18
2022-09-26T07:28:09.493Z,20.68
2022-09-26T07:30:45.790Z,21.01
2022-09-26T07:33:34.250Z,20.58
2022-09-26T07:36:06.656Z,20.91
2022-09-26T07:38:33.742Z,21.13
2022-09-26T07:41:01.173Z,21.08
2022-09-26T07:44:16.878Z,20.87
2022-09-26T07:46:37.623Z,21.02
2022-09-26T07:49:23.134Z,20.68
2022-09-26T07:51:56.983Z,21.05
2022-09-26T07:54:31.244Z,20.44
2022-09-26T07:57:17.090Z,20.62
2022-09-26T08:00:13.856Z,21.33
2022-09-26T08:02:46.743Z,21.30
2022-09-26T08:05:20.020Z,21.64
2022-09-26T08:07:49.276Z,21.22
2022-09-26T08:10:48.111Z,21.69
2022-09-26T08:13:33.240Z,21.72
2022-09-26T08:16:24.799Z,21.78
2022-09-26T08:18:55.706Z,21.86
2022-09-26T08:21:24.359Z,22.45
2022-09-26T08:23:54.271Z,21.80
2022-09-26T08:26:33.017Z,21.42
2022-09-26T08:29:23.723Z,22.22
2022-09-26T08:31:54.773Z,22.36
2022-09-26T08:34:25.279Z,21.88
2022-09-26T08:37:13.583Z,21.98
2022-09-26T08:40:00.865Z,22.81
2022-09-26T08:43:33.697Z,23.09
2022-09-26T08:46:53.063Z,23.14
2022-09-26T08:49:45.160Z,22.80
2022-09-26T08:52:28.350Z,22.93
2022-09-26T08:55:02.300Z,22.83
2022-09-26T08:57:42.158Z,23.81
2022-09-26T09:00:15.093Z,24.03
2022-09-26T09:03:04.496Z,24.10
2022-09-26T09:05:35.712Z,24.63
2022-09-26T09:08:08.056Z,24.78
2022-09-26T09:11:13.321Z,24.90
2022-09-26T09:14:00.536Z,25.02
2022-09-26T09:17:17.838Z,24.89
2022-09-26T09:20:14.517Z,24.66
2022-09-26T09:23:34.897Z,25.36
2022-09-26T09:29:40.042Z,25.94
2022-09-26T09:32:35.154Z,26.25
2022-09-26T09:35:41.434Z,26.64
2022-09-26T09:38:32.836Z,25.97
2022-09-26T09:41:15.293Z,25.79
2022-09-26T09:43:59.095Z,26.25
2022-09-26T09:46:31.248Z,26.57
2022-09-26T09:49:00.561Z,26.49
2022-09-26T09:51:52.694Z,26.94
2022-09-26T09:54:42.580Z,26.37
2022-09-26T09:57:36.667Z,27.24
2022-09-26T10:00:20.483Z,27.02
2022-09-26T10:03:42.447Z,26.98
2022-09-26T10:06:44.776Z,27.34
2022-09-26T10:09:39.416Z,27.69
2022-09-26T10:12:22.545Z,27.94
2022-09-26T10:15:20.828Z,27.48
2022-09-26T10:18:24.590Z,27.65
2022-09-26T10:21:08.898Z,27.66
2022-09-26T10:23:45.460Z,27.90
2022-09-26T10:26:30.578Z,27.49
2022-09-26T10:29:01.143Z,27.67
2022-09-26T10:31:30.323Z,27.71
2022-09-26T10:34:22.165Z,28.01
2022-09-26T10:36:49.341Z,27.87
2022-09-26T10:39:35.429Z,28.07
2022-09-26T10:42:04.366Z,28.11
2022-09-26T10:44:39.552Z,28.07
2022-09-26T10:47:12.731Z,28.69
2022-09-26T10:49:55.876Z,28.80
2022-09-26T10:52:47.051Z,28.22
2022-09-26T10:55:25.434Z,28.39
2022-09-26T10:57:58.784Z,28.14
2022-09-26T11:00:51.719Z,28.40
2022-09-26T11:03:26.434Z,28.54
2022-09-26T11:06:40.538Z,28.47
2022-09-26T11:09:38.465Z,28.36
2022-09-26T11:12:41.479Z,29.22
2022-09-26T11:15:13.803Z,28.94
2022-09-26T11:17:43.438Z,29.17
2022-09-26T11:20:18.035Z,28.82
2022-09-26T11:23:04.980Z,28.76
2022-09-26T11:25:44.975Z,28.95
2022-09-26T11:28:19.381Z,29.24
2022-09-26T11:31:35.485Z,29.45
2022-09-26T11:34:36.209Z,29.61
2022-09-26T11:37:18.715Z,29.62
2022-09-26T11:40:08.548Z,29.31
2022-09-26T11:43:13.712Z,29.35
2022-09-26T11:46:17.339Z,29.77
2022-09-26T11:49:01.676Z,29.97
2022-09-26T11:51:57.107Z,30.17
2022-09-26T11:54:46.400Z,30.00
2022-09-26T11:57:48.590Z,29.92
2022-09-26T12:00:26.528Z,30.08
2022-09-26T12:03:36.166Z,29.71
2022-09-26T12:06:14.623Z,29.42
2022-09-26T12:09:15.772Z,29.68
2022-09-26T12:12:04.134Z,30.15
2022-09-26T12:15:02.212Z,30.18
2022-09-26T12:17:35.409Z,30.08
2022-09-26T12:20:20.246Z,30.18
2022-09-26T12:22:53.459Z,29.99
2022-09-26T12:25:56.056Z,29.79
2022-09-26T12:28:58.264Z,29.64
2022-09-26T12:31:44.068Z,29.52
2022-09-26T12:34:30.237Z,29.42
2022-09-26T12:37:05.750Z,29.66
2022-09-26T12:40:11.467Z,29.53
2022-09-26T12:43:05.452Z,29.26
2022-09-26T12:46:14.244Z,29.34
2022-09-26T12:49:06.830Z,29.27
2022-09-26T12:51:49.800Z,29.62
2022-09-26T12:57:52.431Z,29.54
2022-09-26T13:00:22.143Z,29.26
2022-09-26T13:03:15.916Z,29.13
2022-09-26T13:05:51.478Z,29.18
2022-09-26T13:08:46.935Z,29.28
2022-09-26T13:11:32.957Z,29.32
2022-09-26T13:14:31.903Z,29.22
2022-09-26T13:17:16.599Z,29.15
2022-09-26T13:19:51.571Z,29.06
2022-09-26T13:22:31.642Z,28.86
2022-09-26T13:25:08.114Z,29.07
2022-09-26T13:27:50.045Z,29.01
2022-09-26T13:30:25.258Z,28.95
2022-09-26T13:33:00.288Z,28.98
2022-09-26T13:35:31.798Z,28.91
2022-09-26T13:38:22.127Z,28.85
2022-09-26T13:40:57.913Z,28.74
2022-09-26T13:43:43.615Z,28.84
2022-09-26T13:46:32.389Z,28.93
2022-09-26T13:49:08.428Z,28.80
2022-09-26T13:51:49.919Z,28.68
2022-09-26T13:54:36.404Z,28.81
2022-09-26T13:57:36.556Z,28.85
2022-09-26T14:00:23.327Z,28.73
2022-09-26T14:03:17.719Z,28.60
2022-09-26T14:05:44.696Z,28.53
2022-09-26T14:08:45.273Z,28.77
2022-09-26T14:11:28.674Z,28.75
2022-09-26T14:14:18.228Z,28.67
2022-09-26T14:16:53.745Z,28.74
2022-09-26T14:19:45.144Z,28.53
2022-09-26T14:22:20.739Z,28.58
2022-09-26T14:24:48.596Z,28.67
2022-09-26T14:27:18.251Z,28.64
2022-09-26T14:30:06.982Z,28.74
2022-09-26T14:32:45.460Z,28.28
2022-09-26T14:35:19.491Z,28.37
2022-09-26T14:37:50.631Z,28.59
2022-09-26T14:40:26.095Z,27.89
2022-09-26T14:42:55.210Z,28.37
2022-09-26T14:45:31.048Z,27.66
2022-09-26T14:48:13.657Z,27.09
2022-09-26T14:50:48.053Z,26.93
2022-09-26T14:53:24.845Z,27.92
2022-09-26T14:56:12.255Z,27.71
2022-09-26T14:58:39.636Z,27.28
2022-09-26T15:01:25.361Z,27.17
2022-09-26T15:04:03.181Z,27.45
2022-09-26T15:06:36.110Z,27.18
2022-09-26T15:09:11.377Z,26.68
2022-09-26T15:11:59.849Z,27.01
2022-09-26T15:14:41.154Z,26.70
2022-09-26T15:17:17.939Z,27.00
2022-09-26T15:19:52.285Z,27.02
2022-09-26T15:22:23.995Z,26.67
2022-09-26T15:24:55.580Z,26.58
2022-09-26T15:27:29.358Z,27.10
2022-09-26T15:30:14.212Z,27.06
2022-09-26T15:32:41.412Z,26.85
2022-09-26T15:35:15.447Z,26.92
2022-09-26T15:37:43.182Z,27.27
2022-09-26T15:40:21.613Z,27.04
2022-09-26T15:43:08.048Z,26.68
2022-09-26T15:45:47.634Z,27.14
2022-09-26T15:48:20.359Z,27.20
2022-09-26T15:50:54.891Z,27.58
2022-09-26T15:53:35.574Z,26.95
2022-09-26T15:56:02.335Z,26.69
2022-09-26T15:58:43.088Z,26.95
2022-09-26T16:01:15.599Z,26.68
2022-09-26T16:03:45.941Z,27.01
2022-09-26T16:06:22.407Z,26.99
2022-09-26T16:09:00.430Z,26.70
2022-09-26T16:11:28.026Z,26.94
2022-09-26T16:13:56.661Z,27.32
2022-09-26T16:16:32.142Z,27.39
2022-09-26T16:19:03.175Z,27.53
2022-09-26T16:21:34.014Z,27.39
2022-09-26T16:24:22.445Z,27.30
2022-09-26T16:26:51.148Z,27.34
2022-09-26T16:29:34.097Z,27.23
2022-09-26T16:32:03.323Z,27.35
2022-09-26T16:34:30.659Z,27.50
2022-09-26T16:36:58.504Z,27.51
2022-09-26T16:39:28.717Z,27.72
2022-09-26T16:42:02.654Z,27.55
2022-09-26T16:44:41.376Z,27.52
2022-09-26T16:47:30.820Z,27.43
2022-09-26T16:50:16.963Z,27.27
2022-09-26T16:52:45.876Z,27.14
2022-09-26T16:55:13.069Z,27.47
2022-09-26T16:57:52.457Z,27.63
2022-09-26T17:00:40.456Z,27.59
2022-09-26T17:03:34.693Z,27.41
2022-09-26T17:06:01.960Z,27.14
2022-09-26T17:08:28.736Z,27.48
2022-09-26T17:10:59.945Z,27.38
2022-09-26T17:13:28.960Z,27.25
2022-09-26T17:15:58.274Z,27.15
2022-09-26T17:18:29.190Z,28.06
2022-09-26T17:20:56.940Z,28.31
2022-09-26T17:23:41.169Z,28.03
2022-09-26T17:26:18.169Z,28.27
2022-09-26T17:28:45.676Z,27.81
2022-09-26T17:31:19.802Z,27.75
2022-09-26T17:33:52.813Z,27.20
2022-09-26T17:36:26.201Z,27.22
2022-09-26T17:38:54.635Z,27.08
2022-09-26T17:41:22.866Z,25.82
2022-09-26T17:43:55.496Z,26.04
2022-09-26T17:46:23.739Z,25.91
2022-09-26T17:48:50.601Z,26.03
2022-09-26T17:51:17.926Z,25.76
2022-09-26T17:53:50.434Z,25.60
2022-09-26T17:56:19.541Z,25.86
2022-09-26T17:58:48.632Z,25.49
2022-09-26T18:01:24.335Z,25.45
2022-09-26T18:03:55.764Z,25.67
2022-09-26T18:06:31.755Z,25.72
2022-09-26T18:09:05.230Z,25.29
2022-09-26T18:11:34.602Z,25.16
2022-09-26T18:14:04.732Z,25.29
2022-09-26T18:16:31.797Z,25.29
2022-09-26T18:19:01.099Z,24.64
2022-09-26T18:21:32.191Z,24.91
2022-09-26T18:24:02.556Z,24.81
2022-09-26T18:26:33.578Z,24.59
2022-09-26T18:29:06.378Z,24.75
2022-09-26T18:31:41.172Z,24.84
2022-09-26T18:34:20.136Z,24.66
2022-09-26T18:36:51.632Z,24.81
2022-09-26T18:39:18.949Z,24.86
2022-09-26T18:41:46.458Z,24.94
2022-09-26T18:44:17.331Z,24.94
2022-09-26T18:46:46.925Z,24.37
2022-09-26T18:49:14.987Z,24.64
2022-09-26T18:51:42.355Z,24.40
2022-09-26T18:54:15.527Z,24.63
2022-09-26T18:57:01.881Z,24.61
2022-09-26T18:59:32.374Z,24.84
2022-09-26T19:02:02.119Z,24.85
2022-09-26T19:04:33.501Z,24.70
2022-09-26T19:07:05.143Z,24.91
2022-09-26T19:09:34.756Z,24.92
2022-09-26T19:12:03.319Z,24.67
2022-09-26T19:14:31.577Z,24.81
2022-09-26T19:16:59.217Z,24.62
2022-09-26T19:19:28.683Z,24.42
2022-09-26T19:21:59.435Z,24.18
2022-09-26T19:24:40.506Z,24.18
2022-09-26T19:27:17.114Z,24.10
2022-09-26T19:29:59.018Z,23.89
2022-09-26T19:32:40.480Z,23.81
2022-09-26T19:35:19.815Z,24.10
2022-09-26T19:37:47.855Z,23.63
2022-09-26T19:40:16.888Z,23.71
2022-09-26T19:42:43.915Z,23.61
2022-09-26T19:45:12.487Z,23.68
2022-09-26T19:47:43.232Z,23.84
2022-09-26T19:50:16.126Z,23.71
2022-09-26T19:52:43.237Z,23.32
2022-09-26T19:55:26.529Z,22.92
2022-09-26T19:57:54.554Z,23.08
2022-09-26T20:00:21.485Z,23.04
2022-09-26T20:02:51.608Z,23.36
2022-09-26T20:05:28.006Z,23.17
2022-09-26T20:07:54.937Z,23.03
2022-09-26T20:10:25.212Z,23.10
2022-09-26T20:12:52.444Z,23.26
2022-09-26T20:15:20.556Z,22.99
2022-09-26T20:17:48.623Z,22.87
2022-09-26T20:20:24.251Z,22.87
2022-09-26T20:22:53.148Z,22.81
2022-09-26T20:25:28.021Z,22.96
2022-09-26T20:27:55.580Z,22.86
2022-09-26T20:30:41.051Z,22.59
2022-09-26T20:33:09.758Z,22.76
2022-09-26T20:35:41.498Z,22.43
2022-09-26T20:38:18.156Z,22.78
2022-09-26T20:40:46.281Z,22.63
2022-09-26T20:43:20.508Z,22.91
2022-09-26T20:45:47.746Z,22.55
2022-09-26T20:48:23.088Z,22.23
2022-09-26T20:50:51.069Z,22.46
2022-09-26T20:53:19.151Z,22.45
2022-09-26T20:55:50.201Z,22.46
2022-09-26T20:58:17.019Z,22.51
2022-09-26T21:00:44.705Z,22.58
2022-09-26T21:03:12.763Z,22.36
2022-09-26T21:05:39.949Z,22.58
2022-09-26T21:08:21.096Z,22.45
2022-09-26T21:10:48.009Z,22.59
2022-09-26T21:13:14.831Z,22.64
2022-09-26T21:15:43.277Z,22.51
2022-09-26T21:18:24.179Z,22.56
2022-09-26T21:20:52.259Z,22.56
2022-09-26T21:23:43.531Z,22.05
2022-09-26T21:26:22.771Z,22.15
2022-09-26T21:28:50.656Z,22.21
2022-09-26T21:31:19.981Z,22.45
2022-09-26T21:33:46.929Z,22.58
2022-09-26T21:36:13.922Z,22.46
2022-09-26T21:38:40.668Z,22.30
2022-09-26T21:41:09.690Z,21.98
2022-09-26T21:43:42.795Z,22.17
2022-09-26T21:46:09.696Z,22.10
2022-09-26T21:48:36.664Z,22.14
2022-09-26T21:51:04.043Z,22.33
2022-09-26T21:53:41.435Z,22.30
2022-09-26T21:56:16.204Z,22.36
2022-09-26T21:58:44.105Z,22.23
2022-09-26T22:01:10.954Z,22.19
2022-09-26T22:03:37.886Z,22.30
2022-09-26T22:06:07.572Z,22.39
2022-09-26T22:08:35.344Z,22.32
2022-09-26T22:11:05.165Z,22.08
2022-09-26T22:13:34.289Z,22.12
2022-09-26T22:16:08.557Z,22.36
2022-09-26T22:18:36.857Z,22.42
2022-09-26T22:21:04.728Z,22.26
2022-09-26T22:23:33.510Z,22.12
2022-09-26T22:26:00.645Z,22.17
2022-09-26T22:28:28.009Z,22.03
2022-09-26T22:30:54.855Z,22.17
2022-09-26T22:33:22.659Z,22.22
2022-09-26T22:35:50.541Z,22.12
2022-09-26T22:38:18.291Z,22.12
2022-09-26T22:40:46.298Z,22.21
2022-09-26T22:43:13.302Z,22.15
2022-09-26T22:45:40.148Z,22.03
2022-09-26T22:48:07.036Z,21.75
2022-09-26T22:50:33.775Z,22.03
2022-09-26T22:53:00.503Z,21.83
2022-09-26T22:55:27.411Z,21.45
2022-09-26T22:57:54.093Z,21.78
2022-09-26T23:00:21.031Z,21.84
2022-09-26T23:02:47.825Z,21.89
2022-09-26T23:05:14.595Z,21.93
2022-09-26T23:07:41.529Z,21.84
2022-09-26T23:10:10.422Z,21.71
2022-09-26T23:12:40.503Z,21.61
2022-09-26T23:15:08.685Z,21.80
2022-09-26T23:17:35.715Z,21.29
2022-09-26T23:20:02.603Z,21.28
2022-09-26T23:22:29.388Z,21.45
2022-09-26T23:24:56.280Z,21.40
2022-09-26T23:27:22.932Z,21.45
2022-09-26T23:29:49.689Z,21.54
2022-09-26T23:32:16.922Z,21.52
2022-09-26T23:34:43.667Z,21.33
2022-09-26T23:37:10.508Z,21.20
2022-09-26T23:39:37.254Z,21.37
2022-09-26T23:42:04.164Z,21.44
2022-09-26T23:44:32.317Z,21.17
2022-09-26T23:47:02.559Z,21.12
2022-09-26T23:49:29.348Z,21.33
2022-09-26T23:51:56.456Z,21.15
2022-09-26T23:54:23.254Z,21.36
2022-09-26T23:56:50.056Z,21.33
2022-09-26T23:59:16.882Z,21.29
